createdAt,value
2022-11-08T00:00:42.089Z,13.00
2022-11-08T00:03:10.601Z,12.90
2022-11-08T00:05:56.428Z,13.00
2022-11-08T00:08:42.313Z,12.90
2022-11-08T00:11:29.582Z,12.90
2022-11-08T00:14:00.622Z,12.80
2022-11-08T00:16:29.743Z,12.80
2022-11-08T00:18:58.263Z,12.80
2022-11-08T00:21:26.716Z,12.80
2022-11-08T00:23:55.319Z,12.80
2022-11-08T00:26:25.046Z,12.70
2022-11-08T00:28:53.439Z,12.70
2022-11-08T00:31:21.857Z,12.70
2022-11-08T00:33:50.280Z,12.70
2022-11-08T00:36:18.823Z,12.60
2022-11-08T00:38:47.197Z,12.60
2022-11-08T00:41:15.620Z,12.60
2022-11-08T00:43:45.441Z,12.60
2022-11-08T00:46:13.868Z,12.50
2022-11-08T00:48:42.266Z,12.50
2022-11-08T00:51:12.921Z,12.50
2022-11-08T00:53:42.067Z,12.50
2022-11-08T00:56:13.403Z,12.50
2022-11-08T00:58:43.760Z,12.50
2022-11-08T01:01:15.827Z,12.60
2022-11-08T01:03:44.375Z,12.40
2022-11-08T01:06:14.070Z,12.40
2022-11-08T01:08:42.779Z,12.40
2022-11-08T01:11:14.878Z,12.30
2022-11-08T01:13:43.326Z,12.30
2022-11-08T01:16:15.139Z,12.30
2022-11-08T01:18:43.655Z,12.30
2022-11-08T01:21:13.926Z,12.20
2022-11-08T01:23:45.259Z,12.20
2022-11-08T01:26:15.958Z,12.20
2022-11-08T01:28:44.868Z,12.20
2022-11-08T01:31:16.482Z,12.20
2022-11-08T01:33:50.825Z,12.10
2022-11-08T01:36:21.772Z,12.10
2022-11-08T01:38:50.393Z,12.10
2022-11-08T01:41:20.221Z,12.10
2022-11-08T01:43:50.197Z,12.00
2022-11-08T01:46:35.739Z,12.00
2022-11-08T01:49:24.934Z,12.00
2022-11-08T01:52:03.416Z,12.00
2022-11-08T01:54:37.864Z,12.00
2022-11-08T01:57:11.335Z,12.00
2022-11-08T01:59:42.913Z,12.00
2022-11-08T02:02:13.496Z,12.00
2022-11-08T02:04:43.680Z,12.00
2022-11-08T02:07:14.121Z,12.00
2022-11-08T02:09:45.624Z,12.00
2022-11-08T02:12:14.851Z,12.00
2022-11-08T02:14:43.402Z,12.00
2022-11-08T02:17:14.437Z,11.90
2022-11-08T02:19:45.109Z,11.90
2022-11-08T02:22:23.512Z,11.90
2022-11-08T02:24:54.219Z,11.90
2022-11-08T02:27:22.608Z,11.90
2022-11-08T02:29:53.843Z,11.90
2022-11-08T02:32:23.843Z,11.90
2022-11-08T02:34:56.811Z,11.90
2022-11-08T02:37:28.101Z,11.90
2022-11-08T02:39:57.862Z,11.90
2022-11-08T02:42:26.343Z,11.90
2022-11-08T02:44:54.704Z,11.90
2022-11-08T02:47:24.559Z,11.80
2022-11-08T02:49:53.024Z,11.80
2022-11-08T02:52:21.410Z,11.80
2022-11-08T02:54:49.857Z,11.80
2022-11-08T02:57:19.611Z,11.80
2022-11-08T02:59:49.166Z,11.80
2022-11-08T03:02:17.709Z,11.80
2022-11-08T03:04:46.218Z,11.80
2022-11-08T03:07:14.675Z,11.80
2022-11-08T03:09:43.092Z,11.80
2022-11-08T03:12:11.512Z,11.80
2022-11-08T03:14:41.310Z,11.80
2022-11-08T03:17:09.738Z,11.80
2022-11-08T03:19:38.278Z,11.80
2022-11-08T03:22:06.746Z,11.90
2022-11-08T03:24:35.237Z,11.80
2022-11-08T03:27:04.196Z,11.80
2022-11-08T03:29:32.595Z,11.80
2022-11-08T03:32:02.492Z,11.80
2022-11-08T03:34:30.887Z,11.80
2022-11-08T03:36:59.346Z,11.70
2022-11-08T03:39:27.753Z,11.70
2022-11-08T03:41:56.173Z,11.70
2022-11-08T03:44:24.577Z,11.70
2022-11-08T03:46:54.078Z,11.70
2022-11-08T03:49:23.878Z,11.70
2022-11-08T03:51:52.253Z,11.80
2022-11-08T03:54:20.690Z,11.70
2022-11-08T03:56:49.107Z,11.70
2022-11-08T03:59:17.738Z,11.70
2022-11-08T04:01:46.213Z,11.70
2022-11-08T04:04:14.698Z,11.70
2022-11-08T04:06:44.499Z,11.70
2022-11-08T04:09:15.523Z,11.70
2022-11-08T04:12:03.745Z,11.70
2022-11-08T04:14:54.938Z,11.70
2022-11-08T04:17:43.371Z,11.70
2022-11-08T04:20:30.107Z,11.70
2022-11-08T04:22:59.870Z,11.70
2022-11-08T04:25:32.591Z,11.70
2022-11-08T04:28:03.507Z,11.80
2022-11-08T04:30:32.181Z,11.80
2022-11-08T04:33:01.303Z,11.80
2022-11-08T04:35:29.990Z,11.80
2022-11-08T04:38:03.438Z,11.70
2022-11-08T04:40:32.388Z,11.80
2022-11-08T04:43:00.761Z,11.80
2022-11-08T04:45:29.160Z,11.80
2022-11-08T04:47:57.596Z,11.80
2022-11-08T04:50:26.053Z,11.80
2022-11-08T04:52:56.386Z,11.80
2022-11-08T04:55:26.146Z,11.70
2022-11-08T04:57:58.661Z,11.70
2022-11-08T05:00:27.947Z,11.80
2022-11-08T05:02:56.401Z,11.70
2022-11-08T05:05:24.826Z,11.70
2022-11-08T05:07:54.554Z,11.70
2022-11-08T05:10:22.959Z,11.70
2022-11-08T05:12:56.600Z,11.70
2022-11-08T05:15:25.323Z,11.70
2022-11-08T05:17:53.924Z,11.70
2022-11-08T05:20:39.726Z,11.70
2022-11-08T05:23:26.329Z,11.70
2022-11-08T05:25:56.127Z,11.70
2022-11-08T05:28:25.897Z,11.70
2022-11-08T05:30:56.192Z,11.70
2022-11-08T05:33:25.686Z,11.70
2022-11-08T05:35:54.270Z,11.70
2022-11-08T05:38:22.985Z,11.70
2022-11-08T05:40:51.348Z,11.80
2022-11-08T05:43:20.316Z,11.70
2022-11-08T05:45:50.336Z,11.70
2022-11-08T05:48:18.972Z,11.60
2022-11-08T05:50:48.936Z,11.60
2022-11-08T05:53:18.152Z,11.70
2022-11-08T05:55:46.928Z,11.60
2022-11-08T05:58:15.411Z,11.60
2022-11-08T06:00:43.847Z,11.60
2022-11-08T06:03:13.682Z,11.60
2022-11-08T06:05:42.214Z,11.60
2022-11-08T06:08:10.777Z,11.60
2022-11-08T06:10:39.214Z,11.60
2022-11-08T06:13:07.674Z,11.60
2022-11-08T06:15:36.071Z,11.50
2022-11-08T06:18:05.109Z,11.60
2022-11-08T06:20:34.850Z,11.60
2022-11-08T06:23:03.201Z,11.50
2022-11-08T06:25:31.600Z,11.60
2022-11-08T06:28:01.076Z,11.50
2022-11-08T06:30:29.516Z,11.50
2022-11-08T06:33:00.830Z,11.50
2022-11-08T06:35:29.226Z,11.50
2022-11-08T06:38:01.166Z,11.50
2022-11-08T06:40:31.002Z,11.50
2022-11-08T06:42:59.833Z,11.50
2022-11-08T06:45:28.506Z,11.50
2022-11-08T06:47:58.418Z,11.50
2022-11-08T06:50:26.975Z,11.50
2022-11-08T06:53:00.747Z,11.50
2022-11-08T06:55:29.847Z,11.50
2022-11-08T06:57:58.359Z,11.50
2022-11-08T07:00:27.874Z,11.50
2022-11-08T07:02:57.879Z,11.50
2022-11-08T07:05:27.472Z,11.50
2022-11-08T07:07:59.446Z,11.50
2022-11-08T07:10:29.779Z,11.50
2022-11-08T07:13:01.998Z,11.60
2022-11-08T07:15:31.355Z,11.60
2022-11-08T07:18:02.192Z,11.60
2022-11-08T07:20:31.218Z,11.60
2022-11-08T07:23:01.030Z,11.60
2022-11-08T07:25:31.248Z,11.60
2022-11-08T07:28:01.729Z,11.60
2022-11-08T07:30:30.835Z,11.70
2022-11-08T07:32:59.847Z,11.70
2022-11-08T07:35:28.922Z,11.70
2022-11-08T07:37:58.203Z,11.80
2022-11-08T07:40:28.079Z,11.80
2022-11-08T07:43:14.439Z,11.90
2022-11-08T07:45:44.675Z,12.00
2022-11-08T07:48:14.207Z,12.00
2022-11-08T07:50:43.264Z,11.90
2022-11-08T07:53:12.177Z,12.10
2022-11-08T07:55:42.015Z,12.10
2022-11-08T07:58:11.849Z,12.10
2022-11-08T08:00:41.822Z,12.20
2022-11-08T08:03:12.591Z,12.20
2022-11-08T08:05:42.590Z,12.30
2022-11-08T08:08:12.391Z,12.30
2022-11-08T08:10:42.499Z,12.30
2022-11-08T08:13:10.978Z,12.40
2022-11-08T08:15:39.533Z,12.40
2022-11-08T08:18:09.650Z,12.50
2022-11-08T08:20:39.046Z,12.60
2022-11-08T08:23:07.807Z,12.70
2022-11-08T08:25:36.285Z,12.80
2022-11-08T08:28:06.884Z,12.80
2022-11-08T08:30:35.428Z,12.80
2022-11-08T08:33:34.348Z,12.90
2022-11-08T08:35:55.311Z,12.90
2022-11-08T08:38:23.810Z,13.00
2022-11-08T08:40:52.392Z,13.00
2022-11-08T08:43:22.502Z,13.00
2022-11-08T08:45:51.256Z,12.90
2022-11-08T08:48:19.893Z,13.00
2022-11-08T08:50:48.472Z,13.00
2022-11-08T08:53:17.278Z,13.00
2022-11-08T08:55:47.892Z,13.10
2022-11-08T08:58:16.317Z,13.10
2022-11-08T09:03:35.429Z,13.20
2022-11-08T09:06:04.333Z,13.20
2022-11-08T09:08:32.773Z,13.20
2022-11-08T09:11:02.496Z,13.30
2022-11-08T09:13:31.890Z,13.30
2022-11-08T09:16:03.438Z,13.40
2022-11-08T09:18:32.747Z,13.40
2022-11-08T09:21:03.160Z,13.50
2022-11-08T09:23:31.591Z,13.50
2022-11-08T09:26:00.317Z,13.50
2022-11-08T09:28:31.444Z,13.50
2022-11-08T09:31:06.346Z,13.50
2022-11-08T09:33:34.925Z,13.50
2022-11-08T09:36:04.985Z,13.50
2022-11-08T09:38:33.811Z,13.50
2022-11-08T09:41:30.564Z,13.60
2022-11-08T09:44:10.827Z,13.60
2022-11-08T09:46:48.295Z,13.60
2022-11-08T09:49:22.242Z,13.70
2022-11-08T09:51:50.976Z,13.70
2022-11-08T09:54:24.286Z,13.90
2022-11-08T09:56:55.375Z,13.80
2022-11-08T09:59:35.229Z,13.80
2022-11-08T10:02:16.109Z,13.90
2022-11-08T10:04:53.141Z,14.00
2022-11-08T10:07:30.025Z,14.00
2022-11-08T10:10:19.357Z,14.10
2022-11-08T10:12:54.338Z,14.20
2022-11-08T10:15:31.250Z,14.20
2022-11-08T10:18:19.146Z,14.30
2022-11-08T10:21:00.730Z,14.30
2022-11-08T10:23:43.038Z,14.30
2022-11-08T10:26:18.029Z,14.30
2022-11-08T10:28:51.174Z,14.40
2022-11-08T10:31:21.638Z,14.40
2022-11-08T10:33:53.895Z,14.40
2022-11-08T10:36:27.735Z,14.50
2022-11-08T10:39:03.042Z,14.50
2022-11-08T10:41:40.297Z,14.60
2022-11-08T10:44:15.333Z,14.60
2022-11-08T10:46:45.419Z,14.60
2022-11-08T10:49:21.119Z,14.60
2022-11-08T10:51:51.922Z,14.50
2022-11-08T10:54:43.650Z,14.70
2022-11-08T10:57:14.982Z,14.60
2022-11-08T10:59:43.664Z,14.60
2022-11-08T11:02:22.537Z,14.70
2022-11-08T11:04:53.562Z,14.70
2022-11-08T11:07:29.192Z,14.80
2022-11-08T11:09:57.665Z,14.90
2022-11-08T11:12:26.140Z,15.00
2022-11-08T11:14:58.736Z,15.10
2022-11-08T11:17:35.614Z,15.10
2022-11-08T11:20:22.088Z,15.20
2022-11-08T11:22:51.887Z,15.30
2022-11-08T11:25:22.268Z,15.30
2022-11-08T11:27:54.977Z,15.30
2022-11-08T11:30:28.089Z,15.30
2022-11-08T11:32:59.602Z,15.30
2022-11-08T11:35:36.865Z,15.30
2022-11-08T11:38:13.526Z,15.30
2022-11-08T11:40:45.235Z,15.30
2022-11-08T11:43:19.611Z,15.30
2022-11-08T11:45:53.964Z,15.30
2022-11-08T11:48:28.364Z,15.30
2022-11-08T11:50:59.082Z,15.30
2022-11-08T11:53:29.591Z,15.40
2022-11-08T11:56:26.704Z,15.40
2022-11-08T11:59:19.058Z,15.30
2022-11-08T12:01:57.566Z,15.40
2022-11-08T12:04:42.782Z,15.40
2022-11-08T12:07:19.812Z,15.50
2022-11-08T12:10:01.056Z,15.60
2022-11-08T12:12:42.044Z,15.70
2022-11-08T12:15:21.133Z,15.80
2022-11-08T12:18:03.809Z,15.80
2022-11-08T12:20:50.410Z,15.80
2022-11-08T12:23:34.084Z,15.80
2022-11-08T12:26:12.622Z,15.80
2022-11-08T12:29:01.245Z,15.80
2022-11-08T12:31:33.719Z,15.70
2022-11-08T12:34:17.083Z,15.70
2022-11-08T12:36:54.119Z,15.80
2022-11-08T12:39:33.573Z,15.70
2022-11-08T12:42:23.587Z,15.70
2022-11-08T12:45:10.354Z,15.80
2022-11-08T12:47:44.616Z,15.70
2022-11-08T12:50:28.478Z,15.80
2022-11-08T12:53:24.390Z,15.80
2022-11-08T12:55:57.598Z,15.80
2022-11-08T12:58:34.526Z,15.80
2022-11-08T13:01:07.218Z,15.80
2022-11-08T13:04:06.210Z,15.80
2022-11-08T13:06:42.808Z,15.90
2022-11-08T13:09:21.795Z,15.90
2022-11-08T13:12:02.974Z,16.00
2022-11-08T13:14:34.928Z,16.00
2022-11-08T13:17:18.503Z,16.00
2022-11-08T13:20:05.127Z,16.10
2022-11-08T13:22:47.685Z,16.10
2022-11-08T13:25:39.710Z,16.10
2022-11-08T13:28:38.494Z,16.10
2022-11-08T13:31:28.569Z,16.10
2022-11-08T13:34:15.336Z,16.10
2022-11-08T13:37:06.979Z,16.10
2022-11-08T13:39:51.514Z,16.10
2022-11-08T13:42:38.623Z,16.10
2022-11-08T13:45:28.549Z,16.00
2022-11-08T13:47:59.533Z,16.00
2022-11-08T13:50:52.726Z,16.00
2022-11-08T13:53:46.768Z,16.00
2022-11-08T13:56:50.157Z,16.00
2022-11-08T13:59:52.417Z,16.00
2022-11-08T14:02:41.775Z,15.90
2022-11-08T14:05:30.826Z,15.90
2022-11-08T14:08:24.656Z,15.90
2022-11-08T14:11:31.053Z,15.80
2022-11-08T14:14:25.821Z,15.80
2022-11-08T14:17:08.360Z,15.80
2022-11-08T14:19:40.252Z,15.70
2022-11-08T14:22:16.264Z,15.80
2022-11-08T14:24:44.864Z,15.70
2022-11-08T14:27:15.103Z,15.70
2022-11-08T14:29:44.241Z,15.70
2022-11-08T14:32:19.182Z,15.60
2022-11-08T14:34:49.060Z,15.60
2022-11-08T14:37:24.541Z,15.60
2022-11-08T14:39:54.236Z,15.60
2022-11-08T14:42:24.508Z,15.60
2022-11-08T14:44:55.410Z,15.50
2022-11-08T14:47:26.933Z,15.50
2022-11-08T14:49:57.041Z,15.50
2022-11-08T14:52:29.512Z,15.50
2022-11-08T14:55:04.763Z,15.50
2022-11-08T14:57:35.576Z,15.50
2022-11-08T15:00:14.532Z,15.50
2022-11-08T15:02:46.690Z,15.50
2022-11-08T15:05:48.302Z,15.50
2022-11-08T15:08:27.182Z,15.40
2022-11-08T15:10:58.295Z,15.40
2022-11-08T15:13:29.602Z,15.40
2022-11-08T15:16:02.260Z,15.40
2022-11-08T15:18:34.479Z,15.30
2022-11-08T15:21:07.227Z,15.30
2022-11-08T15:23:42.977Z,15.30
2022-11-08T15:26:26.011Z,15.30
2022-11-08T15:29:06.980Z,15.40
2022-11-08T15:31:40.515Z,15.30
2022-11-08T15:34:21.678Z,15.30
2022-11-08T15:36:51.719Z,15.30
2022-11-08T15:39:24.599Z,15.40
2022-11-08T15:42:04.048Z,15.30
2022-11-08T15:44:32.813Z,15.30
2022-11-08T15:47:01.235Z,15.30
2022-11-08T15:49:30.603Z,15.30
2022-11-08T15:52:00.390Z,15.30
2022-11-08T15:54:28.865Z,15.30
2022-11-08T15:56:58.197Z,15.20
2022-11-08T15:59:29.516Z,15.10
2022-11-08T16:02:00.121Z,15.10
2022-11-08T16:04:29.189Z,15.00
2022-11-08T16:06:58.254Z,15.00
2022-11-08T16:09:28.107Z,14.90
2022-11-08T16:11:56.588Z,14.80
2022-11-08T16:14:25.943Z,14.70
2022-11-08T16:16:54.428Z,14.70
2022-11-08T16:19:24.777Z,14.60
2022-11-08T16:21:53.566Z,14.60
2022-11-08T16:24:21.975Z,14.50
2022-11-08T16:26:51.785Z,14.50
2022-11-08T16:29:22.450Z,14.40
2022-11-08T16:31:51.993Z,14.40
2022-11-08T16:34:21.725Z,14.40
2022-11-08T16:36:50.728Z,14.30
2022-11-08T16:39:22.335Z,14.30
2022-11-08T16:41:52.151Z,14.30
2022-11-08T16:44:20.555Z,14.20
2022-11-08T16:46:49.342Z,14.20
2022-11-08T16:49:22.214Z,14.20
2022-11-08T16:51:51.024Z,14.20
2022-11-08T16:54:23.849Z,14.20
2022-11-08T16:57:13.773Z,14.20
2022-11-08T16:59:42.260Z,14.30
2022-11-08T17:02:20.358Z,14.20
2022-11-08T17:04:49.005Z,14.30
2022-11-08T17:07:17.443Z,14.30
2022-11-08T17:09:45.879Z,14.30
2022-11-08T17:12:15.646Z,14.40
2022-11-08T17:14:44.072Z,14.40
2022-11-08T17:17:12.990Z,14.40
2022-11-08T17:19:41.445Z,14.40
2022-11-08T17:22:09.860Z,14.40
2022-11-08T17:24:38.277Z,14.50
2022-11-08T17:27:06.792Z,14.50
2022-11-08T17:29:36.736Z,14.50
2022-11-08T17:32:05.371Z,14.50
2022-11-08T17:34:33.916Z,14.40
2022-11-08T17:37:02.371Z,14.40
2022-11-08T17:39:30.810Z,14.40
2022-11-08T17:41:59.969Z,14.40
2022-11-08T17:44:29.450Z,14.30
2022-11-08T17:46:59.230Z,14.30
2022-11-08T17:49:27.741Z,14.30
2022-11-08T17:51:56.134Z,14.40
2022-11-08T17:54:24.540Z,14.30
2022-11-08T17:56:53.011Z,14.20
2022-11-08T17:59:21.871Z,14.20
2022-11-08T18:01:50.694Z,14.10
2022-11-08T18:04:20.864Z,14.10
2022-11-08T18:06:49.625Z,14.10
2022-11-08T18:09:18.189Z,14.10
2022-11-08T18:11:48.542Z,14.10
2022-11-08T18:14:17.464Z,14.10
2022-11-08T18:16:48.889Z,14.10
2022-11-08T18:19:17.717Z,14.10
2022-11-08T18:21:47.687Z,14.10
2022-11-08T18:24:16.406Z,14.20
2022-11-08T18:26:45.102Z,14.20
2022-11-08T18:29:13.520Z,14.20
2022-11-08T18:31:41.952Z,14.20
2022-11-08T18:34:10.358Z,14.20
2022-11-08T18:36:38.790Z,14.30
2022-11-08T18:39:08.648Z,14.40
2022-11-08T18:41:37.089Z,14.40
2022-11-08T18:44:06.129Z,14.40
2022-11-08T18:46:41.813Z,14.50
2022-11-08T18:49:12.096Z,14.50
2022-11-08T18:51:40.517Z,14.50
2022-11-08T18:54:10.298Z,14.50
2022-11-08T18:56:38.803Z,14.40
2022-11-08T18:59:09.066Z,14.40
2022-11-08T19:01:37.811Z,14.40
2022-11-08T19:04:06.374Z,14.40
2022-11-08T19:06:34.860Z,14.40
2022-11-08T19:09:03.557Z,14.30
2022-11-08T19:11:33.587Z,14.30
2022-11-08T19:14:02.126Z,14.30
2022-11-08T19:16:30.706Z,14.30
2022-11-08T19:18:59.127Z,14.20
2022-11-08T19:21:28.718Z,14.20
2022-11-08T19:23:59.092Z,14.20
2022-11-08T19:26:28.858Z,14.20
2022-11-08T19:28:59.168Z,14.10
2022-11-08T19:31:27.760Z,14.10
2022-11-08T19:33:56.697Z,14.10
2022-11-08T19:36:27.542Z,14.10
2022-11-08T19:38:57.825Z,14.00
2022-11-08T19:41:27.988Z,14.00
2022-11-08T19:43:58.128Z,14.00
2022-11-08T19:46:29.535Z,14.00
2022-11-08T19:48:59.473Z,13.90
2022-11-08T19:51:30.353Z,13.90
2022-11-08T19:54:00.159Z,13.90
2022-11-08T19:56:57.681Z,13.90
2022-11-08T19:59:20.029Z,13.90
2022-11-08T20:01:48.586Z,13.90
2022-11-08T20:04:18.387Z,13.90
2022-11-08T20:06:47.276Z,13.90
2022-11-08T20:09:16.018Z,13.90
2022-11-08T20:11:45.227Z,13.90
2022-11-08T20:14:14.477Z,13.90
2022-11-08T20:16:49.265Z,13.80
2022-11-08T20:19:20.731Z,13.90
2022-11-08T20:21:49.425Z,13.90
2022-11-08T20:24:18.812Z,13.90
2022-11-08T20:26:47.373Z,13.90
2022-11-08T20:29:15.806Z,13.90
2022-11-08T20:31:45.778Z,13.80
2022-11-08T20:34:14.294Z,13.90
2022-11-08T20:36:44.059Z,13.80
2022-11-08T20:39:13.887Z,13.90
2022-11-08T20:41:42.837Z,13.70
2022-11-08T20:44:12.108Z,13.80
2022-11-08T20:46:40.696Z,13.80
2022-11-08T20:49:10.658Z,13.80
2022-11-08T20:51:39.104Z,13.80
2022-11-08T20:54:07.638Z,13.80
2022-11-08T20:56:36.265Z,13.80
2022-11-08T20:59:05.448Z,13.70
2022-11-08T21:01:34.351Z,13.70
2022-11-08T21:04:03.165Z,13.70
2022-11-08T21:06:36.405Z,13.70
2022-11-08T21:11:55.021Z,13.60
2022-11-08T21:14:24.579Z,13.60
2022-11-08T21:17:22.982Z,13.50
2022-11-08T21:19:42.381Z,13.50
2022-11-08T21:22:18.294Z,13.60
2022-11-08T21:24:48.299Z,13.40
2022-11-08T21:27:17.113Z,13.40
2022-11-08T21:29:45.707Z,13.40
2022-11-08T21:32:14.305Z,13.40
2022-11-08T21:34:46.061Z,13.40
2022-11-08T21:37:16.532Z,13.40
2022-11-08T21:39:45.572Z,13.40
2022-11-08T21:42:14.408Z,13.40
2022-11-08T21:44:42.938Z,13.40
2022-11-08T21:47:12.066Z,13.40
2022-11-08T21:49:40.547Z,13.40
2022-11-08T21:52:09.903Z,13.40
2022-11-08T21:54:40.508Z,13.40
2022-11-08T21:57:08.954Z,13.40
2022-11-08T21:59:37.458Z,13.30
2022-11-08T22:02:06.047Z,13.40
2022-11-08T22:04:34.770Z,13.40
2022-11-08T22:07:03.261Z,13.40
2022-11-08T22:09:31.691Z,13.40
2022-11-08T22:12:01.493Z,13.40
2022-11-08T22:14:31.080Z,13.40
2022-11-08T22:16:59.555Z,13.40
2022-11-08T22:19:27.953Z,13.40
2022-11-08T22:21:56.372Z,13.40
2022-11-08T22:24:24.793Z,13.40
2022-11-08T22:26:53.507Z,13.40
2022-11-08T22:29:23.402Z,13.40
2022-11-08T22:31:52.083Z,13.40
2022-11-08T22:34:20.498Z,13.30
2022-11-08T22:36:49.034Z,13.30
2022-11-08T22:39:19.185Z,13.30
2022-11-08T22:41:51.349Z,13.30
2022-11-08T22:44:20.594Z,13.30
2022-11-08T22:46:50.630Z,13.30
2022-11-08T22:49:19.142Z,13.20
2022-11-08T22:51:47.604Z,13.30
2022-11-08T22:54:16.055Z,13.20
2022-11-08T22:56:44.550Z,13.20
2022-11-08T22:59:13.100Z,13.20
2022-11-08T23:01:41.624Z,13.30
2022-11-08T23:04:11.662Z,13.20
2022-11-08T23:06:40.719Z,13.20
2022-11-08T23:09:09.771Z,13.20
2022-11-08T23:11:55.519Z,13.20
2022-11-08T23:14:41.659Z,13.20
2022-11-08T23:17:10.335Z,13.20
2022-11-08T23:20:00.079Z,13.20
2022-11-08T23:22:46.111Z,13.30
2022-11-08T23:25:14.583Z,13.30
2022-11-08T23:28:00.441Z,13.30
2022-11-08T23:30:46.267Z,13.30
2022-11-08T23:33:14.691Z,13.30
2022-11-08T23:36:04.436Z,13.40
2022-11-08T23:38:32.850Z,13.40
2022-11-08T23:41:18.598Z,13.60
2022-11-08T23:44:04.611Z,13.50
2022-11-08T23:46:33.104Z,13.50
2022-11-08T23:49:02.422Z,13.50
2022-11-08T23:51:32.275Z,13.50
2022-11-08T23:54:00.662Z,13.50
2022-11-08T23:56:29.733Z,13.50
2022-11-08T23:59:00.103Z,13.50
